createdAt,value
2023-04-27T00:01:14.565Z,76.00
2023-04-27T00:03:42.573Z,76.50
2023-04-27T00:06:10.029Z,76.30
2023-04-27T00:08:37.763Z,76.20
2023-04-27T00:11:05.102Z,75.90
2023-04-27T00:13:32.315Z,74.80
2023-04-27T00:16:03.420Z,74.50
2023-04-27T00:18:31.972Z,73.90
2023-04-27T00:20:59.370Z,73.60
2023-04-27T00:23:26.906Z,73.50
2023-04-27T00:25:54.146Z,73.20
2023-04-27T00:28:21.358Z,73.20
2023-04-27T00:30:48.907Z,73.30
2023-04-27T00:33:17.156Z,73.40
2023-04-27T00:35:44.350Z,73.30
2023-04-27T00:38:12.186Z,73.30
2023-04-27T00:40:39.945Z,73.20
2023-04-27T00:43:09.173Z,73.30
2023-04-27T00:45:42.787Z,73.40
2023-04-27T00:48:13.608Z,73.40
2023-04-27T00:50:41.265Z,73.10
2023-04-27T00:53:08.671Z,73.40
2023-04-27T00:55:35.892Z,73.20
2023-04-27T00:58:03.326Z,73.20
2023-04-27T01:00:30.870Z,73.70
2023-04-27T01:02:58.498Z,74.30
2023-04-27T01:05:26.477Z,74.20
2023-04-27T01:07:53.675Z,74.30
2023-04-27T01:10:21.035Z,73.80
2023-04-27T01:12:48.271Z,73.70
2023-04-27T01:15:15.500Z,74.20
2023-04-27T01:17:43.707Z,75.00
2023-04-27T01:20:11.737Z,75.20
2023-04-27T01:22:39.627Z,75.40
2023-04-27T01:25:08.049Z,74.80
2023-04-27T01:27:35.272Z,75.00
2023-04-27T01:30:04.538Z,74.50
2023-04-27T01:32:31.750Z,74.30
2023-04-27T01:34:59.012Z,73.80
2023-04-27T01:37:26.785Z,73.70
2023-04-27T01:39:54.007Z,73.30
2023-04-27T01:42:21.211Z,73.40
2023-04-27T01:44:49.033Z,73.50
2023-04-27T01:47:17.378Z,73.20
2023-04-27T01:49:44.709Z,72.90
2023-04-27T01:52:12.101Z,72.90
2023-04-27T01:54:39.343Z,73.10
2023-04-27T01:57:06.993Z,73.20
2023-04-27T01:59:34.345Z,73.20
2023-04-27T02:02:02.186Z,73.30
2023-04-27T02:04:30.428Z,72.90
2023-04-27T02:06:58.552Z,73.30
2023-04-27T02:09:25.829Z,73.10
2023-04-27T02:11:53.045Z,73.60
2023-04-27T02:14:20.246Z,73.40
2023-04-27T02:16:47.662Z,73.60
2023-04-27T02:19:15.003Z,73.80
2023-04-27T02:21:42.499Z,73.90
2023-04-27T02:24:10.146Z,74.30
2023-04-27T02:26:37.365Z,75.40
2023-04-27T02:29:04.605Z,76.00
2023-04-27T02:31:32.297Z,76.80
2023-04-27T02:33:59.590Z,77.20
2023-04-27T02:36:27.873Z,77.70
2023-04-27T02:38:55.988Z,78.10
2023-04-27T02:41:23.185Z,78.20
2023-04-27T02:43:51.564Z,78.30
2023-04-27T02:46:18.875Z,77.40
2023-04-27T02:48:46.119Z,76.70
2023-04-27T02:51:13.336Z,76.40
2023-04-27T02:53:41.008Z,76.10
2023-04-27T02:56:08.273Z,76.10
2023-04-27T02:58:35.475Z,76.00
2023-04-27T03:01:02.772Z,75.90
2023-04-27T03:03:30.190Z,76.10
2023-04-27T03:05:57.631Z,76.20
2023-04-27T03:08:24.907Z,76.50
2023-04-27T03:10:52.099Z,76.80
2023-04-27T03:13:19.281Z,76.90
2023-04-27T03:15:47.012Z,77.10
2023-04-27T03:18:14.254Z,77.20
2023-04-27T03:20:41.681Z,77.00
2023-04-27T03:23:08.962Z,76.80
2023-04-27T03:25:36.308Z,76.90
2023-04-27T03:28:03.635Z,77.00
2023-04-27T03:30:30.981Z,77.50
2023-04-27T03:32:58.617Z,77.90
2023-04-27T03:35:26.163Z,77.90
2023-04-27T03:37:53.359Z,78.10
2023-04-27T03:40:21.281Z,78.20
2023-04-27T03:42:48.497Z,78.20
2023-04-27T03:45:16.760Z,78.40
2023-04-27T03:47:44.159Z,78.60
2023-04-27T03:50:11.628Z,78.90
2023-04-27T03:52:38.956Z,78.90
2023-04-27T03:55:07.033Z,79.20
2023-04-27T03:57:34.392Z,79.10
2023-04-27T04:00:01.761Z,79.30
2023-04-27T04:02:29.366Z,79.20
2023-04-27T04:04:58.038Z,79.10
2023-04-27T04:07:26.399Z,78.80
2023-04-27T04:09:53.605Z,78.70
2023-04-27T04:12:21.029Z,78.60
2023-04-27T04:14:49.093Z,78.90
2023-04-27T04:17:16.814Z,79.20
2023-04-27T04:19:44.108Z,79.50
2023-04-27T04:22:11.912Z,79.90
2023-04-27T04:24:40.211Z,80.20
2023-04-27T04:27:07.440Z,80.00
2023-04-27T04:29:34.944Z,80.30
2023-04-27T04:32:02.162Z,80.40
2023-04-27T04:34:31.068Z,80.40
2023-04-27T04:36:58.536Z,80.30
2023-04-27T04:39:27.411Z,80.40
2023-04-27T04:41:54.780Z,80.80
2023-04-27T04:44:22.673Z,80.70
2023-04-27T04:46:51.157Z,80.60
2023-04-27T04:49:18.475Z,80.80
2023-04-27T04:51:46.227Z,81.10
2023-04-27T04:54:13.785Z,81.20
2023-04-27T04:56:41.034Z,81.00
2023-04-27T04:59:09.310Z,81.00
2023-04-27T05:01:36.675Z,80.90
2023-04-27T05:04:04.300Z,80.80
2023-04-27T05:06:32.252Z,81.00
2023-04-27T05:08:59.682Z,81.30
2023-04-27T05:11:26.980Z,81.30
2023-04-27T05:13:54.228Z,81.20
2023-04-27T05:16:21.535Z,81.30
2023-04-27T05:18:48.801Z,81.00
2023-04-27T05:21:17.573Z,81.00
2023-04-27T05:23:44.894Z,80.50
2023-04-27T05:26:16.945Z,80.40
2023-04-27T05:28:44.800Z,79.80
2023-04-27T05:31:12.200Z,79.60
2023-04-27T05:33:39.918Z,79.80
2023-04-27T05:36:07.452Z,80.00
2023-04-27T05:38:36.182Z,79.60
2023-04-27T05:41:03.811Z,79.50
2023-04-27T05:43:31.067Z,79.80
2023-04-27T05:45:58.375Z,79.80
2023-04-27T05:48:25.626Z,79.60
2023-04-27T05:51:01.316Z,79.50
2023-04-27T05:53:29.668Z,78.90
2023-04-27T05:55:59.006Z,78.70
2023-04-27T05:58:26.437Z,78.00
2023-04-27T06:00:54.308Z,78.00
2023-04-27T06:03:21.739Z,77.80
2023-04-27T06:05:56.268Z,76.80
2023-04-27T06:08:25.448Z,76.90
2023-04-27T06:10:53.033Z,76.70
2023-04-27T06:13:21.012Z,76.70
2023-04-27T06:15:48.330Z,75.40
2023-04-27T06:18:15.953Z,76.00
2023-04-27T06:20:43.261Z,75.70
2023-04-27T06:23:10.464Z,74.60
2023-04-27T06:25:40.347Z,73.50
2023-04-27T06:28:07.716Z,73.70
2023-04-27T06:30:35.280Z,73.00
2023-04-27T06:33:03.436Z,73.10
2023-04-27T06:35:31.523Z,71.80
2023-04-27T06:37:58.927Z,72.50
2023-04-27T06:40:26.861Z,73.00
2023-04-27T06:42:54.132Z,74.20
2023-04-27T06:45:21.424Z,74.70
2023-04-27T06:47:48.724Z,74.90
2023-04-27T06:50:16.496Z,74.30
2023-04-27T06:52:43.807Z,74.10
2023-04-27T06:55:11.125Z,74.70
2023-04-27T06:57:38.411Z,73.40
2023-04-27T07:00:06.352Z,72.50
2023-04-27T07:02:33.707Z,72.20
2023-04-27T07:05:01.022Z,70.80
2023-04-27T07:07:28.334Z,70.00
2023-04-27T07:09:55.587Z,70.20
2023-04-27T07:12:22.854Z,67.40
2023-04-27T07:14:50.988Z,68.10
2023-04-27T07:17:19.309Z,68.30
2023-04-27T07:19:46.518Z,67.60
2023-04-27T07:22:15.993Z,66.70
2023-04-27T07:24:43.366Z,67.60
2023-04-27T07:27:10.707Z,66.40
2023-04-27T07:29:38.122Z,67.80
2023-04-27T07:32:09.456Z,66.70
2023-04-27T07:34:49.012Z,65.30
2023-04-27T07:37:20.962Z,64.00
2023-04-27T07:39:50.376Z,63.20
2023-04-27T07:42:18.519Z,64.50
2023-04-27T07:44:45.890Z,62.40
2023-04-27T07:47:13.652Z,60.20
2023-04-27T07:49:41.020Z,63.50
2023-04-27T07:52:08.491Z,59.00
2023-04-27T07:54:36.178Z,58.80
2023-04-27T07:57:09.455Z,59.50
2023-04-27T07:59:37.086Z,60.00
2023-04-27T08:02:18.251Z,58.80
2023-04-27T08:04:48.969Z,58.30
2023-04-27T08:07:18.223Z,58.90
2023-04-27T08:09:48.836Z,58.40
2023-04-27T08:12:17.828Z,58.00
2023-04-27T08:14:46.318Z,59.90
2023-04-27T08:17:14.668Z,55.50
2023-04-27T08:19:42.182Z,56.30
2023-04-27T08:22:11.591Z,58.50
2023-04-27T08:24:38.846Z,58.50
2023-04-27T08:27:07.007Z,57.30
2023-04-27T08:29:34.605Z,59.00
2023-04-27T08:32:03.726Z,59.80
2023-04-27T08:34:32.260Z,54.20
2023-04-27T08:37:00.357Z,56.10
2023-04-27T08:39:27.968Z,54.50
2023-04-27T08:41:55.351Z,53.80
2023-04-27T08:44:22.749Z,54.70
2023-04-27T08:46:51.290Z,51.30
2023-04-27T08:49:18.872Z,49.90
2023-04-27T08:51:46.449Z,51.10
2023-04-27T08:54:13.830Z,54.10
2023-04-27T08:56:41.116Z,49.70
2023-04-27T08:59:15.182Z,49.40
2023-04-27T09:01:49.814Z,49.70
2023-04-27T09:04:20.746Z,50.70
2023-04-27T09:06:49.717Z,48.60
2023-04-27T09:09:25.418Z,50.40
2023-04-27T09:11:52.744Z,49.60
2023-04-27T09:14:22.583Z,49.30
2023-04-27T09:16:58.062Z,47.50
2023-04-27T09:19:29.863Z,49.10
2023-04-27T09:22:11.265Z,47.50
2023-04-27T09:24:38.866Z,47.70
2023-04-27T09:27:07.434Z,49.60
2023-04-27T09:29:39.017Z,49.10
2023-04-27T09:32:20.767Z,48.40
2023-04-27T09:34:48.200Z,49.70
2023-04-27T09:37:16.412Z,51.00
2023-04-27T09:39:43.715Z,50.70
2023-04-27T09:42:12.475Z,50.30
2023-04-27T09:44:39.964Z,48.70
2023-04-27T09:47:07.654Z,46.10
2023-04-27T09:49:35.065Z,47.60
2023-04-27T09:52:02.408Z,47.50
2023-04-27T09:54:34.046Z,46.60
2023-04-27T09:57:14.040Z,46.00
2023-04-27T09:59:53.626Z,46.80
2023-04-27T10:02:24.788Z,45.20
2023-04-27T10:05:32.172Z,43.40
2023-04-27T10:08:00.711Z,43.00
2023-04-27T10:10:28.434Z,42.90
2023-04-27T10:12:57.709Z,38.30
2023-04-27T10:15:29.876Z,40.10
2023-04-27T10:18:04.968Z,43.10
2023-04-27T10:20:35.846Z,45.80
2023-04-27T10:23:03.482Z,45.60
2023-04-27T10:25:40.565Z,46.30
2023-04-27T10:28:08.350Z,46.30
2023-04-27T10:30:37.858Z,47.80
2023-04-27T10:33:06.309Z,47.00
2023-04-27T10:35:41.049Z,45.80
2023-04-27T10:38:10.434Z,44.20
2023-04-27T10:40:38.625Z,46.40
2023-04-27T10:43:17.528Z,43.80
2023-04-27T10:45:45.421Z,42.90
2023-04-27T10:48:16.819Z,41.60
2023-04-27T10:50:44.914Z,43.60
2023-04-27T10:53:13.020Z,37.00
2023-04-27T10:55:40.399Z,38.00
2023-04-27T10:58:07.913Z,40.40
2023-04-27T11:00:38.849Z,46.20
2023-04-27T11:03:18.146Z,43.90
2023-04-27T11:05:47.035Z,44.70
2023-04-27T11:08:16.599Z,42.60
2023-04-27T11:10:46.471Z,44.70
2023-04-27T11:13:15.601Z,42.60
2023-04-27T11:16:04.512Z,45.70
2023-04-27T11:18:33.642Z,45.40
2023-04-27T11:21:22.247Z,41.60
2023-04-27T11:23:49.441Z,44.30
2023-04-27T11:26:21.867Z,42.10
2023-04-27T11:29:09.412Z,40.30
2023-04-27T11:31:47.309Z,39.50
2023-04-27T11:34:19.576Z,42.00
2023-04-27T11:37:24.042Z,42.50
2023-04-27T11:39:52.472Z,40.60
2023-04-27T11:42:25.408Z,42.00
2023-04-27T11:44:54.218Z,42.40
2023-04-27T11:47:22.883Z,40.10
2023-04-27T11:49:52.111Z,40.30
2023-04-27T11:52:19.414Z,42.40
2023-04-27T11:54:53.079Z,40.90
2023-04-27T11:57:27.771Z,38.70
2023-04-27T11:59:56.794Z,39.60
2023-04-27T12:02:25.411Z,40.10
2023-04-27T12:04:53.221Z,36.60
2023-04-27T12:07:20.961Z,41.40
2023-04-27T12:09:48.349Z,42.30
2023-04-27T12:12:18.402Z,39.40
2023-04-27T12:14:45.982Z,40.50
2023-04-27T12:17:13.511Z,42.70
2023-04-27T12:19:40.952Z,41.50
2023-04-27T12:22:08.548Z,39.90
2023-04-27T12:24:37.183Z,41.40
2023-04-27T12:27:05.104Z,41.20
2023-04-27T12:29:32.779Z,40.00
2023-04-27T12:32:00.392Z,39.90
2023-04-27T12:34:28.461Z,42.50
2023-04-27T12:36:55.982Z,41.30
2023-04-27T12:39:25.406Z,39.30
2023-04-27T12:41:53.378Z,35.80
2023-04-27T12:44:21.538Z,37.70
2023-04-27T12:46:49.273Z,37.80
2023-04-27T12:49:17.727Z,38.10
2023-04-27T12:51:46.689Z,36.40
2023-04-27T12:54:14.466Z,38.40
2023-04-27T12:56:42.321Z,34.70
2023-04-27T12:59:09.706Z,34.10
2023-04-27T13:01:37.213Z,33.70
2023-04-27T13:04:05.932Z,32.80
2023-04-27T13:06:33.358Z,34.90
2023-04-27T13:09:01.082Z,35.60
2023-04-27T13:11:28.473Z,34.70
2023-04-27T13:13:55.723Z,37.10
2023-04-27T13:16:25.190Z,34.70
2023-04-27T13:18:55.446Z,33.50
2023-04-27T13:21:23.251Z,31.70
2023-04-27T13:23:51.624Z,33.40
2023-04-27T13:26:19.102Z,30.70
2023-04-27T13:28:46.471Z,30.00
2023-04-27T13:31:13.738Z,29.70
2023-04-27T13:33:43.989Z,29.00
2023-04-27T13:36:12.468Z,28.70
2023-04-27T13:38:40.388Z,27.50
2023-04-27T13:41:08.187Z,26.50
2023-04-27T13:43:35.698Z,26.60
2023-04-27T13:46:03.477Z,25.30
2023-04-27T13:48:32.109Z,25.20
2023-04-27T13:50:59.391Z,25.90
2023-04-27T13:53:26.962Z,26.00
2023-04-27T13:55:55.291Z,27.80
2023-04-27T13:58:25.631Z,27.20
2023-04-27T14:00:54.003Z,26.20
2023-04-27T14:03:22.804Z,25.00
2023-04-27T14:05:53.655Z,25.70
2023-04-27T14:08:21.714Z,26.80
2023-04-27T14:10:49.142Z,26.90
2023-04-27T14:13:18.322Z,25.70
2023-04-27T14:15:45.928Z,28.90
2023-04-27T14:18:13.368Z,27.40
2023-04-27T14:20:42.135Z,26.50
2023-04-27T14:23:10.808Z,25.90
2023-04-27T14:25:39.057Z,25.40
2023-04-27T14:28:07.067Z,25.60
2023-04-27T14:30:35.101Z,24.70
2023-04-27T14:33:02.866Z,22.80
2023-04-27T14:35:30.460Z,23.30
2023-04-27T14:38:02.351Z,23.60
2023-04-27T14:40:31.230Z,23.60
2023-04-27T14:42:58.677Z,24.20
2023-04-27T14:45:30.915Z,23.20
2023-04-27T14:48:01.556Z,22.30
2023-04-27T14:50:28.923Z,21.60
2023-04-27T14:52:58.767Z,21.90
2023-04-27T14:55:26.150Z,21.70
2023-04-27T14:57:53.476Z,21.80
2023-04-27T15:00:20.974Z,20.70
2023-04-27T15:02:49.380Z,19.60
2023-04-27T15:05:16.596Z,17.40
2023-04-27T15:07:43.763Z,17.90
2023-04-27T15:10:11.044Z,19.00
2023-04-27T15:12:38.334Z,18.10
2023-04-27T15:15:10.089Z,19.80
2023-04-27T15:17:37.807Z,19.90
2023-04-27T15:20:06.023Z,21.20
2023-04-27T15:22:33.480Z,20.00
2023-04-27T15:25:00.710Z,21.80
2023-04-27T15:27:28.001Z,20.90
2023-04-27T15:29:55.641Z,20.10
2023-04-27T15:32:29.987Z,21.10
2023-04-27T15:34:58.245Z,19.40
2023-04-27T15:37:28.053Z,20.90
2023-04-27T15:39:55.833Z,19.10
2023-04-27T15:42:23.963Z,18.10
2023-04-27T15:44:51.331Z,18.70
2023-04-27T15:47:18.614Z,19.00
2023-04-27T15:49:56.133Z,19.60
2023-04-27T15:52:27.106Z,20.50
2023-04-27T15:54:55.026Z,21.00
2023-04-27T15:57:22.265Z,20.00
2023-04-27T15:59:49.611Z,18.90
2023-04-27T16:02:16.942Z,18.60
2023-04-27T16:04:44.524Z,18.50
2023-04-27T16:07:12.879Z,18.10
2023-04-27T16:09:40.361Z,19.20
2023-04-27T16:12:07.629Z,18.50
2023-04-27T16:14:34.882Z,17.20
2023-04-27T16:17:02.213Z,16.20
2023-04-27T16:19:29.690Z,16.70
2023-04-27T16:21:56.960Z,17.20
2023-04-27T16:24:25.684Z,16.60
2023-04-27T16:26:52.947Z,16.60
2023-04-27T16:29:20.212Z,18.30
2023-04-27T16:31:50.194Z,16.60
2023-04-27T16:34:17.545Z,18.00
2023-04-27T16:36:46.655Z,18.20
2023-04-27T16:39:14.166Z,18.70
2023-04-27T16:41:41.697Z,19.10
2023-04-27T16:44:08.965Z,19.00
2023-04-27T16:46:37.344Z,19.60
2023-04-27T16:49:04.664Z,20.50
2023-04-27T16:51:32.247Z,20.90
2023-04-27T16:54:00.058Z,22.30
2023-04-27T16:56:28.637Z,21.50
2023-04-27T16:58:56.063Z,22.20
2023-04-27T17:01:26.001Z,22.00
2023-04-27T17:03:53.924Z,22.70
2023-04-27T17:06:23.355Z,24.90
2023-04-27T17:08:51.095Z,25.80
2023-04-27T17:11:19.265Z,25.20
2023-04-27T17:13:49.456Z,26.50
2023-04-27T17:16:18.002Z,28.10
2023-04-27T17:18:46.489Z,27.90
2023-04-27T17:21:13.944Z,28.10
2023-04-27T17:23:46.522Z,30.70
2023-04-27T17:26:19.690Z,32.00
2023-04-27T17:28:47.774Z,32.20
2023-04-27T17:31:17.354Z,33.10
2023-04-27T17:33:45.573Z,31.20
2023-04-27T17:36:13.003Z,32.70
2023-04-27T17:38:40.839Z,34.50
2023-04-27T17:41:08.142Z,33.60
2023-04-27T17:43:37.581Z,32.80
2023-04-27T17:46:09.739Z,32.40
2023-04-27T17:48:37.896Z,33.10
2023-04-27T17:51:05.177Z,33.20
2023-04-27T17:53:32.466Z,33.20
2023-04-27T17:56:00.240Z,33.10
2023-04-27T17:58:28.107Z,33.20
2023-04-27T18:00:55.700Z,35.10
2023-04-27T18:03:23.683Z,37.30
2023-04-27T18:05:52.830Z,37.00
2023-04-27T18:08:20.371Z,35.90
2023-04-27T18:10:47.608Z,35.10
2023-04-27T18:13:14.814Z,36.20
2023-04-27T18:15:42.191Z,34.50
2023-04-27T18:18:10.893Z,35.30
2023-04-27T18:20:38.292Z,35.50
2023-04-27T18:23:05.501Z,37.40
2023-04-27T18:25:32.816Z,38.80
2023-04-27T18:27:59.987Z,39.10
2023-04-27T18:30:28.497Z,38.90
2023-04-27T18:32:55.757Z,39.10
2023-04-27T18:35:23.043Z,41.40
2023-04-27T18:37:51.129Z,42.90
2023-04-27T18:40:20.213Z,43.50
2023-04-27T18:42:47.897Z,42.40
2023-04-27T18:45:15.806Z,43.10
2023-04-27T18:47:43.088Z,43.70
2023-04-27T18:50:13.525Z,45.70
2023-04-27T18:52:40.853Z,44.60
2023-04-27T18:55:08.956Z,44.60
2023-04-27T18:57:36.711Z,45.80
2023-04-27T19:00:05.739Z,47.30
2023-04-27T19:02:33.120Z,48.90
2023-04-27T19:05:11.160Z,49.40
2023-04-27T19:07:40.096Z,49.90
2023-04-27T19:10:07.919Z,51.30
2023-04-27T19:12:35.817Z,51.00
2023-04-27T19:15:03.658Z,49.60
2023-04-27T19:17:31.289Z,51.20
2023-04-27T19:19:58.750Z,51.40
2023-04-27T19:22:27.394Z,50.90
2023-04-27T19:24:54.621Z,49.60
2023-04-27T19:27:21.927Z,48.60
2023-04-27T19:29:57.685Z,48.00
2023-04-27T19:32:27.233Z,48.60
2023-04-27T19:34:56.212Z,48.30
2023-04-27T19:37:24.596Z,48.30
2023-04-27T19:39:51.847Z,49.30
2023-04-27T19:42:19.091Z,50.10
2023-04-27T19:44:46.312Z,50.40
2023-04-27T19:47:13.630Z,50.90
2023-04-27T19:49:41.078Z,51.40
2023-04-27T19:52:08.399Z,51.60
2023-04-27T19:54:38.511Z,53.20
2023-04-27T19:57:06.110Z,53.70
2023-04-27T19:59:33.342Z,54.50
2023-04-27T20:02:00.601Z,54.20
2023-04-27T20:04:28.895Z,53.50
2023-04-27T20:06:56.290Z,53.10
2023-04-27T20:09:23.579Z,51.50
2023-04-27T20:11:50.827Z,52.00
2023-04-27T20:14:18.262Z,52.10
2023-04-27T20:16:45.656Z,51.80
2023-04-27T20:19:15.332Z,50.90
2023-04-27T20:21:43.240Z,51.20
2023-04-27T20:24:10.599Z,50.80
2023-04-27T20:26:37.822Z,51.30
2023-04-27T20:29:05.016Z,51.60
2023-04-27T20:31:32.697Z,51.90
2023-04-27T20:34:00.197Z,54.70
2023-04-27T20:36:27.764Z,54.50
2023-04-27T20:38:55.138Z,54.30
2023-04-27T20:41:22.385Z,54.60
2023-04-27T20:43:52.496Z,54.40
2023-04-27T20:46:20.054Z,53.40
2023-04-27T20:48:47.656Z,53.00
2023-04-27T20:51:14.857Z,52.80
2023-04-27T20:53:42.206Z,52.50
2023-04-27T20:56:09.594Z,52.40
2023-04-27T20:58:36.848Z,52.50
2023-04-27T21:01:04.602Z,54.70
2023-04-27T21:03:32.195Z,54.10
2023-04-27T21:05:59.490Z,53.80
2023-04-27T21:08:27.885Z,52.50
2023-04-27T21:10:57.132Z,53.70
2023-04-27T21:13:24.699Z,52.70
2023-04-27T21:15:51.900Z,52.60
2023-04-27T21:18:29.701Z,53.20
2023-04-27T21:21:02.120Z,54.30
2023-04-27T21:23:29.595Z,55.00
2023-04-27T21:25:56.862Z,55.10
2023-04-27T21:28:24.083Z,54.10
2023-04-27T21:30:51.601Z,54.00
2023-04-27T21:33:19.430Z,55.20
2023-04-27T21:35:47.117Z,54.80
2023-04-27T21:38:14.274Z,55.40
2023-04-27T21:40:41.536Z,57.40
2023-04-27T21:43:09.036Z,57.50
2023-04-27T21:45:37.782Z,55.50
2023-04-27T21:48:06.505Z,54.80
2023-04-27T21:50:34.319Z,56.20
2023-04-27T21:53:01.550Z,57.00
2023-04-27T21:55:29.775Z,54.20
2023-04-27T21:57:57.338Z,55.10
2023-04-27T22:00:25.603Z,54.70
2023-04-27T22:02:58.018Z,55.70
2023-04-27T22:05:29.265Z,55.30
2023-04-27T22:07:57.783Z,55.20
2023-04-27T22:10:25.052Z,54.80
2023-04-27T22:12:52.642Z,54.10
2023-04-27T22:15:21.510Z,54.60
2023-04-27T22:17:49.719Z,54.00
2023-04-27T22:20:17.418Z,54.70
2023-04-27T22:22:44.745Z,55.00
2023-04-27T22:25:12.644Z,55.10
2023-04-27T22:27:45.180Z,55.20
2023-04-27T22:30:13.845Z,54.40
2023-04-27T22:32:41.606Z,55.40
2023-04-27T22:35:22.584Z,55.80
2023-04-27T22:37:54.849Z,55.60
2023-04-27T22:40:22.116Z,56.30
2023-04-27T22:42:49.377Z,55.30
2023-04-27T22:45:16.962Z,55.80
2023-04-27T22:47:45.614Z,55.90
2023-04-27T22:50:13.394Z,56.20
2023-04-27T22:52:44.017Z,56.00
2023-04-27T22:55:12.577Z,55.80
2023-04-27T22:57:40.408Z,55.70
2023-04-27T23:00:11.863Z,55.70
2023-04-27T23:02:40.289Z,56.20
2023-04-27T23:05:08.524Z,56.30
2023-04-27T23:07:36.163Z,56.00
2023-04-27T23:10:04.689Z,56.50
2023-04-27T23:12:32.216Z,56.20
2023-04-27T23:14:59.625Z,56.80
2023-04-27T23:17:33.026Z,57.20
2023-04-27T23:20:01.526Z,57.10
2023-04-27T23:22:28.849Z,56.90
2023-04-27T23:24:56.213Z,57.20
2023-04-27T23:27:24.781Z,57.40
2023-04-27T23:29:53.052Z,57.90
2023-04-27T23:32:20.578Z,58.60
2023-04-27T23:34:47.794Z,58.70
2023-04-27T23:37:15.475Z,58.70
2023-04-27T23:39:44.117Z,58.70
2023-04-27T23:42:11.332Z,59.10
2023-04-27T23:44:38.533Z,58.70
2023-04-27T23:47:06.285Z,58.30
2023-04-27T23:49:33.514Z,58.40
2023-04-27T23:52:01.013Z,59.40
2023-04-27T23:54:32.167Z,59.10
2023-04-27T23:56:59.354Z,58.80
2023-04-27T23:59:26.616Z,59.60
